Time;durP1;ratioP1;P1;durP2;ratioP2;P2;SDS_P1;SDS_P2;PMS_P1;PMS_P2;Temp;Humidity;BMP_temperature;BMP_pressure;BME280_temperature;BME280_humidity;BME280_pressure;Samples;Min_cycle;Max_cycle;Signal;HPM_P1;HPM_P2
2022/03/06 00:00:23;;;;;;;;;;;13.00;68.00;;;;;;5273426;28;20014;-34
2022/03/06 00:03:14;;;;;;;;;;;13.00;68.10;;;;;;5273370;28;19970;-41
2022/03/06 00:05:45;;;;;;;;;;;13.00;68.20;;;;;;5273457;28;20285;-44
2022/03/06 00:08:16;;;;;;;;;;;13.00;68.20;;;;;;5273399;28;19920;-42
2022/03/06 00:10:47;;;;;;;;;;;13.00;68.30;;;;;;5273341;28;20315;-38
2022/03/06 00:13:18;;;;;;;;;;;13.00;68.20;;;;;;5273342;28;19965;-34
2022/03/06 00:15:49;;;;;;;;;;;13.00;68.00;;;;;;5273096;28;19924;-35
2022/03/06 00:18:20;;;;;;;;;;;13.00;68.00;;;;;;5273134;28;19920;-39
2022/03/06 00:20:51;;;;;;;;;;;13.00;68.00;;;;;;5273164;28;19920;-34
2022/03/06 00:23:22;;;;;;;;;;;13.00;68.10;;;;;;5273254;28;20285;-40
2022/03/06 00:25:53;;;;;;;;;;;13.00;68.10;;;;;;5273087;28;19924;-38
2022/03/06 00:28:23;;;;;;;;;;;13.00;68.30;;;;;;5273039;28;19927;-33
2022/03/06 00:30:54;;;;;;;;;;;13.00;68.30;;;;;;5272928;28;19973;-33
2022/03/06 00:33:25;;;;;;;;;;;13.00;68.30;;;;;;5272989;28;19920;-42
2022/03/06 00:35:56;;;;;;;;;;;12.90;68.30;;;;;;5272747;28;19927;-41
2022/03/06 00:38:28;;;;;;;;;;;13.00;68.40;;;;;;5272738;28;20272;-37
2022/03/06 00:40:59;;;;;;;;;;;13.00;68.50;;;;;;5272584;28;19920;-37
2022/03/06 00:43:30;;;;;;;;;;;13.00;68.60;;;;;;5272772;28;19927;-39
2022/03/06 00:46:01;;;;;;;;;;;13.00;68.50;;;;;;5272478;28;19927;-35
2022/03/06 00:48:32;;;;;;;;;;;13.00;68.50;;;;;;5272105;28;19924;-38
2022/03/06 00:51:03;;;;;;;;;;;12.90;68.40;;;;;;5272489;28;19966;-38
2022/03/06 00:53:33;;;;;;;;;;;13.00;68.50;;;;;;5272516;28;20315;-37
2022/03/06 00:56:05;;;;;;;;;;;12.90;68.40;;;;;;5271289;28;19920;-38
2022/03/06 00:58:37;;;;;;;;;;;12.90;68.50;;;;;;5271983;28;19920;-35
2022/03/06 01:01:08;;;;;;;;;;;12.90;68.40;;;;;;5272324;28;20062;-37
2022/03/06 01:03:40;;;;;;;;;;;12.90;68.40;;;;;;5272163;28;20018;-40
2022/03/06 01:06:11;;;;;;;;;;;12.90;68.40;;;;;;5272503;28;19959;-38
2022/03/06 01:08:42;;;;;;;;;;;12.90;68.40;;;;;;5272536;28;19979;-34
2022/03/06 01:11:13;;;;;;;;;;;12.90;68.50;;;;;;5253558;28;19967;-42
2022/03/06 01:13:43;;;;;;;;;;;12.90;68.40;;;;;;5272207;28;20321;-42
2022/03/06 01:16:14;;;;;;;;;;;12.90;68.30;;;;;;5271921;28;19920;-39
2022/03/06 01:18:45;;;;;;;;;;;12.90;68.30;;;;;;5271909;28;19920;-35
2022/03/06 01:21:17;;;;;;;;;;;12.90;68.30;;;;;;5271882;28;19942;-42
2022/03/06 01:23:47;;;;;;;;;;;12.90;68.40;;;;;;5271753;28;19920;-35
2022/03/06 01:26:19;;;;;;;;;;;12.90;68.40;;;;;;5271421;28;19927;-40
2022/03/06 01:28:49;;;;;;;;;;;12.90;68.50;;;;;;5271552;28;19927;-41
2022/03/06 01:31:20;;;;;;;;;;;12.90;68.60;;;;;;5271698;28;20373;-37
2022/03/06 01:33:51;;;;;;;;;;;12.90;68.50;;;;;;5271914;28;19924;-34
2022/03/06 01:36:22;;;;;;;;;;;12.90;68.60;;;;;;5271650;28;20010;-36
2022/03/06 01:38:53;;;;;;;;;;;12.90;68.60;;;;;;5271176;28;20023;-37
2022/03/06 01:41:24;;;;;;;;;;;12.90;68.60;;;;;;5271268;28;19938;-42
2022/03/06 01:43:55;;;;;;;;;;;12.90;68.60;;;;;;5271210;28;19974;-33
2022/03/06 01:46:26;;;;;;;;;;;12.90;68.40;;;;;;5271435;28;19920;-35
2022/03/06 01:48:57;;;;;;;;;;;12.90;68.30;;;;;;5271435;28;19920;-33
2022/03/06 01:51:28;;;;;;;;;;;12.90;68.30;;;;;;5286831;28;19966;-35
2022/03/06 01:53:58;;;;;;;;;;;12.80;68.30;;;;;;5271292;28;19924;-41
2022/03/06 01:56:29;;;;;;;;;;;12.90;68.40;;;;;;5271188;28;20369;-38
2022/03/06 01:59:01;;;;;;;;;;;12.80;68.30;;;;;;5270022;28;19927;-41
2022/03/06 02:01:31;;;;;;;;;;;12.80;68.30;;;;;;5271215;28;19959;-42
2022/03/06 02:04:02;;;;;;;;;;;12.80;68.30;;;;;;5270994;28;20346;-36
2022/03/06 02:06:36;;;;;;;;;;;12.80;68.30;;;;;;5271057;28;19924;-37
2022/03/06 02:09:06;;;;;;;;;;;12.80;68.20;;;;;;5271050;28;20320;-38
2022/03/06 02:11:39;;;;;;;;;;;12.80;68.20;;;;;;5270814;28;19920;-35
2022/03/06 02:14:09;;;;;;;;;;;12.80;68.20;;;;;;5270975;28;20327;-38
2022/03/06 02:16:40;;;;;;;;;;;12.80;68.20;;;;;;5271294;28;19920;-38
2022/03/06 02:19:13;;;;;;;;;;;12.80;68.30;;;;;;5270792;28;19967;-35
2022/03/06 02:21:48;;;;;;;;;;;12.80;68.20;;;;;;5270816;28;19946;-38
2022/03/06 02:24:18;;;;;;;;;;;12.80;68.20;;;;;;5270587;28;19919;-41
2022/03/06 02:26:49;;;;;;;;;;;12.80;68.20;;;;;;5270929;28;20361;-38
2022/03/06 02:29:20;;;;;;;;;;;12.80;67.90;;;;;;5270732;28;19920;-35
2022/03/06 02:31:51;;;;;;;;;;;12.80;67.90;;;;;;5270481;28;19960;-40
2022/03/06 02:34:22;;;;;;;;;;;12.80;67.90;;;;;;5270758;28;19977;-37
2022/03/06 02:36:53;;;;;;;;;;;12.80;68.10;;;;;;5270714;28;19920;-33
2022/03/06 02:39:24;;;;;;;;;;;12.80;67.90;;;;;;5270129;28;19920;-39
2022/03/06 02:41:55;;;;;;;;;;;12.80;67.80;;;;;;5270778;28;19924;-35
2022/03/06 02:44:26;;;;;;;;;;;12.80;68.00;;;;;;5270149;28;20281;-36
2022/03/06 02:46:57;;;;;;;;;;;12.70;67.90;;;;;;5270691;28;19943;-38
2022/03/06 02:49:28;;;;;;;;;;;12.80;68.00;;;;;;5270423;28;19920;-34
2022/03/06 02:51:59;;;;;;;;;;;12.70;67.90;;;;;;5270203;28;19920;-41
2022/03/06 02:54:31;;;;;;;;;;;12.70;67.90;;;;;;5270492;28;19924;-38
2022/03/06 02:57:03;;;;;;;;;;;12.70;67.90;;;;;;5270502;28;19924;-36
2022/03/06 02:59:34;;;;;;;;;;;12.70;67.90;;;;;;5270067;28;19920;-40
2022/03/06 03:02:05;;;;;;;;;;;12.70;67.80;;;;;;5270230;28;19956;-38
2022/03/06 03:04:37;;;;;;;;;;;12.70;67.70;;;;;;5270095;28;19955;-38
2022/03/06 03:07:08;;;;;;;;;;;12.70;67.60;;;;;;5270221;28;19959;-35
2022/03/06 03:09:38;;;;;;;;;;;12.70;67.60;;;;;;5269964;28;19948;-34
2022/03/06 03:12:10;;;;;;;;;;;12.70;67.60;;;;;;5270133;28;20272;-35
2022/03/06 03:14:41;;;;;;;;;;;12.70;67.80;;;;;;5270054;28;19920;-36
2022/03/06 03:17:12;;;;;;;;;;;12.70;67.80;;;;;;5269806;28;19924;-38
2022/03/06 03:19:42;;;;;;;;;;;12.70;68.00;;;;;;5269886;28;19965;-40
2022/03/06 03:22:13;;;;;;;;;;;12.70;68.00;;;;;;5269797;28;19927;-36
2022/03/06 03:24:44;;;;;;;;;;;12.70;67.90;;;;;;5269590;28;19997;-41
2022/03/06 03:27:15;;;;;;;;;;;12.70;68.00;;;;;;5269918;28;20250;-37
2022/03/06 03:29:46;;;;;;;;;;;12.70;68.20;;;;;;5269607;28;19928;-33
2022/03/06 03:32:17;;;;;;;;;;;12.70;68.20;;;;;;5269728;28;19923;-31
2022/03/06 03:34:48;;;;;;;;;;;12.70;68.30;;;;;;5269975;28;20333;-37
2022/03/06 03:37:19;;;;;;;;;;;12.70;68.20;;;;;;5269934;28;19920;-41
2022/03/06 03:39:50;;;;;;;;;;;12.70;68.30;;;;;;5285399;28;19920;-39
2022/03/06 03:42:21;;;;;;;;;;;12.70;68.30;;;;;;5270337;28;19985;-40
2022/03/06 03:44:52;;;;;;;;;;;12.70;68.30;;;;;;5270117;28;19924;-38
2022/03/06 03:47:23;;;;;;;;;;;12.70;68.40;;;;;;5269667;28;20018;-35
2022/03/06 03:49:54;;;;;;;;;;;12.70;68.40;;;;;;5269698;28;20003;-32
2022/03/06 03:52:25;;;;;;;;;;;12.70;68.30;;;;;;5269663;28;19920;-39
2022/03/06 03:54:55;;;;;;;;;;;12.70;68.30;;;;;;5269669;28;19920;-41
2022/03/06 03:57:26;;;;;;;;;;;12.70;68.40;;;;;;5269792;28;19924;-32
2022/03/06 03:59:57;;;;;;;;;;;12.70;68.50;;;;;;5269772;28;20250;-31
2022/03/06 04:02:28;;;;;;;;;;;12.70;68.50;;;;;;5268418;28;19920;-39
2022/03/06 04:04:59;;;;;;;;;;;12.70;68.50;;;;;;5269524;28;19973;-42
2022/03/06 04:07:30;;;;;;;;;;;12.70;68.50;;;;;;5270056;28;19920;-37
2022/03/06 04:10:01;;;;;;;;;;;12.70;68.50;;;;;;5268360;28;19985;-35
2022/03/06 04:12:32;;;;;;;;;;;12.70;68.50;;;;;;5269508;28;19927;-36
2022/03/06 04:15:03;;;;;;;;;;;12.70;68.50;;;;;;5268331;28;19920;-38
2022/03/06 04:17:37;;;;;;;;;;;12.70;68.60;;;;;;5269407;28;20407;-34
2022/03/06 04:20:13;;;;;;;;;;;12.70;68.50;;;;;;5284515;28;20293;-36
2022/03/06 04:23:08;;;;;;;;;;;12.70;68.60;;;;;;5271303;28;19920;-33
2022/03/06 04:25:39;;;;;;;;;;;12.70;68.50;;;;;;5272899;28;19920;-32
2022/03/06 04:28:10;;;;;;;;;;;12.60;68.40;;;;;;5273099;28;20364;-39
2022/03/06 04:30:41;;;;;;;;;;;12.70;68.50;;;;;;5273050;28;20376;-31
2022/03/06 04:33:11;;;;;;;;;;;12.60;68.50;;;;;;5272903;28;19924;-33
2022/03/06 04:35:42;;;;;;;;;;;12.70;68.60;;;;;;5273002;28;20426;-41
2022/03/06 04:38:13;;;;;;;;;;;12.60;68.50;;;;;;5272727;28;19920;-42
2022/03/06 04:40:46;;;;;;;;;;;12.60;68.70;;;;;;5273319;28;19927;-35
2022/03/06 04:43:18;;;;;;;;;;;12.60;68.50;;;;;;5272756;28;20321;-36
2022/03/06 04:45:49;;;;;;;;;;;12.60;68.20;;;;;;5272661;28;19927;-39
2022/03/06 04:48:20;;;;;;;;;;;12.70;68.20;;;;;;5271585;28;20357;-35
2022/03/06 04:50:52;;;;;;;;;;;12.60;68.00;;;;;;5272463;28;19931;-39
2022/03/06 04:53:22;;;;;;;;;;;12.60;67.90;;;;;;5271117;28;19924;-42
2022/03/06 04:55:53;;;;;;;;;;;12.60;67.80;;;;;;5272626;28;19926;-33
2022/03/06 04:58:24;;;;;;;;;;;12.70;67.70;;;;;;5272008;28;20006;-36
2022/03/06 05:00:55;;;;;;;;;;;12.70;67.70;;;;;;5272378;28;20385;-38
2022/03/06 05:03:26;;;;;;;;;;;12.70;67.60;;;;;;5287791;28;19927;-35
2022/03/06 05:05:57;;;;;;;;;;;12.70;67.40;;;;;;5272710;28;20281;-36
2022/03/06 05:08:28;;;;;;;;;;;12.70;67.50;;;;;;5272200;28;19920;-35
2022/03/06 05:10:59;;;;;;;;;;;12.80;68.00;;;;;;5272313;28;19982;-38
2022/03/06 05:13:30;;;;;;;;;;;12.70;67.40;;;;;;5272174;28;19947;-34
2022/03/06 05:16:01;;;;;;;;;;;12.80;67.30;;;;;;5288266;28;20361;-34
2022/03/06 05:18:32;;;;;;;;;;;12.80;67.40;;;;;;5272361;28;19969;-32
2022/03/06 05:21:03;;;;;;;;;;;12.80;67.30;;;;;;5271910;28;19920;-36
2022/03/06 05:23:33;;;;;;;;;;;12.80;67.30;;;;;;5272016;28;19923;-33
2022/03/06 05:26:04;;;;;;;;;;;12.80;67.20;;;;;;5271774;28;19927;-33
2022/03/06 05:28:36;;;;;;;;;;;12.80;67.30;;;;;;5272069;28;20006;-34
2022/03/06 05:31:07;;;;;;;;;;;12.90;67.40;;;;;;5271847;28;19966;-31
2022/03/06 05:33:38;;;;;;;;;;;12.80;67.30;;;;;;5271484;28;19926;-35
2022/03/06 05:36:09;;;;;;;;;;;12.90;67.40;;;;;;5271685;28;20277;-39
2022/03/06 05:38:40;;;;;;;;;;;12.90;67.40;;;;;;5271547;28;19927;-39
2022/03/06 05:41:11;;;;;;;;;;;12.90;67.40;;;;;;5271552;28;20395;-32
2022/03/06 05:43:42;;;;;;;;;;;12.90;67.40;;;;;;5287294;28;20334;-34
2022/03/06 05:46:13;;;;;;;;;;;12.90;67.30;;;;;;5271669;28;20430;-38
2022/03/06 05:48:43;;;;;;;;;;;12.90;67.20;;;;;;5271430;28;19920;-33
2022/03/06 05:51:14;;;;;;;;;;;12.90;67.20;;;;;;5270138;28;19920;-35
2022/03/06 05:53:45;;;;;;;;;;;12.90;67.20;;;;;;5271367;28;20270;-43
2022/03/06 05:56:16;;;;;;;;;;;13.00;67.40;;;;;;5271268;28;20353;-39
2022/03/06 05:58:49;;;;;;;;;;;13.00;67.70;;;;;;5271101;28;19920;-34
2022/03/06 06:01:20;;;;;;;;;;;13.00;67.90;;;;;;5270156;28;19920;-32
2022/03/06 06:03:50;;;;;;;;;;;13.00;67.90;;;;;;5271442;28;19920;-38
2022/03/06 06:06:23;;;;;;;;;;;13.00;68.00;;;;;;5266266;28;19950;-35
2022/03/06 06:08:54;;;;;;;;;;;13.00;68.00;;;;;;5254751;28;19927;-32
2022/03/06 06:11:26;;;;;;;;;;;13.00;68.00;;;;;;5268890;28;19927;-36
2022/03/06 06:13:57;;;;;;;;;;;13.00;68.10;;;;;;5268431;28;19920;-34
2022/03/06 06:16:28;;;;;;;;;;;13.00;68.10;;;;;;5268743;28;20387;-36
2022/03/06 06:19:00;;;;;;;;;;;13.00;68.20;;;;;;5267262;28;19949;-32
2022/03/06 06:21:31;;;;;;;;;;;13.00;68.30;;;;;;5268534;28;19935;-38
2022/03/06 06:24:02;;;;;;;;;;;12.90;68.30;;;;;;5268221;28;19927;-35
2022/03/06 06:26:33;;;;;;;;;;;12.90;68.40;;;;;;5283765;28;20044;-42
2022/03/06 06:29:05;;;;;;;;;;;12.90;68.60;;;;;;5268380;28;19923;-34
2022/03/06 06:31:36;;;;;;;;;;;12.90;68.80;;;;;;5268426;28;19920;-42
2022/03/06 06:34:08;;;;;;;;;;;12.90;68.90;;;;;;5268349;28;19982;-34
2022/03/06 06:36:57;;;;;;;;;;;12.90;69.10;;;;;;5267141;28;19947;-31
2022/03/06 06:39:40;;;;;;;;;;;12.90;69.30;;;;;;5268092;28;19928;-30
2022/03/06 06:42:18;;;;;;;;;;;12.90;69.40;;;;;;5266878;28;20057;-32
2022/03/06 06:44:49;;;;;;;;;;;12.90;69.60;;;;;;5267617;28;19973;-39
2022/03/06 06:47:20;;;;;;;;;;;12.90;69.80;;;;;;5267778;28;20428;-37
2022/03/06 06:49:51;;;;;;;;;;;12.90;70.10;;;;;;5268340;28;19962;-37
2022/03/06 06:52:22;;;;;;;;;;;12.90;70.00;;;;;;5267660;28;19924;-41
2022/03/06 06:54:53;;;;;;;;;;;12.90;70.10;;;;;;5268034;28;19955;-36
2022/03/06 06:57:24;;;;;;;;;;;12.90;70.00;;;;;;5266295;28;20007;-30
2022/03/06 06:59:55;;;;;;;;;;;12.90;71.40;;;;;;5266005;28;20015;-31
2022/03/06 07:02:27;;;;;;;;;;;12.90;73.90;;;;;;5253867;28;20358;-32
2022/03/06 07:04:59;;;;;;;;;;;13.10;77.20;;;;;;5252400;28;19927;-38
2022/03/06 07:07:30;;;;;;;;;;;13.20;81.30;;;;;;5250352;28;19921;-34
2022/03/06 07:10:02;;;;;;;;;;;13.30;81.30;;;;;;5250982;28;19925;-30
2022/03/06 07:12:43;;;;;;;;;;;13.50;83.20;;;;;;5255179;28;19927;-32
2022/03/06 07:15:14;;;;;;;;;;;13.60;84.90;;;;;;5251520;28;19928;-32
2022/03/06 07:17:46;;;;;;;;;;;13.80;82.70;;;;;;5247010;28;19944;-31
2022/03/06 07:20:17;;;;;;;;;;;13.90;78.80;;;;;;5252181;28;19928;-32
2022/03/06 07:22:49;;;;;;;;;;;14.00;75.50;;;;;;5266768;28;19920;-40
2022/03/06 07:25:20;;;;;;;;;;;14.00;73.30;;;;;;5266997;28;19919;-31
2022/03/06 07:27:51;;;;;;;;;;;14.10;71.80;;;;;;5253172;28;19927;-36
2022/03/06 07:30:22;;;;;;;;;;;14.10;70.80;;;;;;5248639;28;19925;-31
2022/03/06 07:32:53;;;;;;;;;;;14.10;70.00;;;;;;5249869;28;19960;-40
2022/03/06 07:35:25;;;;;;;;;;;14.10;69.60;;;;;;5253807;28;20002;-31
2022/03/06 07:37:57;;;;;;;;;;;14.00;69.30;;;;;;5263743;28;19927;-35
2022/03/06 07:40:27;;;;;;;;;;;14.00;69.00;;;;;;5269393;28;19920;-39
2022/03/06 07:42:59;;;;;;;;;;;14.00;69.10;;;;;;5269757;28;19966;-41
2022/03/06 07:45:32;;;;;;;;;;;14.00;69.00;;;;;;5262817;28;19931;-34
2022/03/06 07:48:05;;;;;;;;;;;14.00;68.80;;;;;;5262660;28;19920;-37
2022/03/06 07:50:36;;;;;;;;;;;13.90;68.90;;;;;;5254349;28;19920;-34
2022/03/06 07:53:08;;;;;;;;;;;13.90;68.90;;;;;;5266969;28;20319;-36
2022/03/06 07:55:38;;;;;;;;;;;13.90;69.10;;;;;;5267401;28;20322;-34
2022/03/06 07:58:09;;;;;;;;;;;13.90;69.40;;;;;;5270066;28;19920;-36
2022/03/06 08:00:40;;;;;;;;;;;13.90;78.70;;;;;;5271078;28;19920;-31
2022/03/06 08:03:11;;;;;;;;;;;13.90;81.70;;;;;;5271069;28;19928;-35
2022/03/06 08:05:42;;;;;;;;;;;13.90;71.00;;;;;;5271353;28;19973;-30
2022/03/06 08:08:13;;;;;;;;;;;13.90;69.10;;;;;;5270074;28;19919;-34
2022/03/06 08:10:44;;;;;;;;;;;13.90;68.50;;;;;;5270864;28;19924;-37
2022/03/06 08:13:15;;;;;;;;;;;13.90;67.80;;;;;;5270930;28;19930;-38
2022/03/06 08:15:46;;;;;;;;;;;13.90;67.00;;;;;;5272161;28;20357;-37
2022/03/06 08:18:17;;;;;;;;;;;13.80;66.30;;;;;;5272974;28;19949;-38
2022/03/06 08:20:48;;;;;;;;;;;13.80;65.20;;;;;;5273416;28;19968;-39
2022/03/06 08:23:19;;;;;;;;;;;13.80;63.30;;;;;;5272962;28;19970;-37
2022/03/06 08:25:50;;;;;;;;;;;13.80;66.00;;;;;;5272241;28;19951;-36
2022/03/06 08:28:23;;;;;;;;;;;13.80;66.00;;;;;;5288651;28;19920;-31
2022/03/06 08:30:54;;;;;;;;;;;13.80;62.80;;;;;;5271555;28;19920;-35
2022/03/06 08:33:25;;;;;;;;;;;13.80;63.30;;;;;;5272744;28;19920;-36
2022/03/06 08:35:55;;;;;;;;;;;13.80;63.00;;;;;;5273289;28;19934;-36
2022/03/06 08:38:28;;;;;;;;;;;13.80;61.90;;;;;;5272804;28;20311;-33
2022/03/06 08:40:59;;;;;;;;;;;13.80;61.90;;;;;;5272884;28;19920;-35
2022/03/06 08:43:30;;;;;;;;;;;13.80;61.20;;;;;;5272557;28;19924;-37
2022/03/06 08:46:03;;;;;;;;;;;13.80;61.10;;;;;;5272589;28;20250;-33
2022/03/06 08:48:36;;;;;;;;;;;13.80;61.10;;;;;;5272554;28;19980;-38
2022/03/06 08:51:07;;;;;;;;;;;13.70;60.70;;;;;;5272815;28;19927;-35
2022/03/06 08:53:38;;;;;;;;;;;13.80;61.60;;;;;;5260769;28;19921;-34
2022/03/06 08:56:10;;;;;;;;;;;13.80;61.90;;;;;;5258831;28;20403;-34
2022/03/06 08:58:41;;;;;;;;;;;13.80;59.90;;;;;;5259363;28;20071;-42
2022/03/06 09:01:12;;;;;;;;;;;13.80;59.70;;;;;;5257478;28;19947;-32
2022/03/06 09:03:43;;;;;;;;;;;13.70;60.10;;;;;;5250868;28;19920;-31
2022/03/06 09:06:14;;;;;;;;;;;13.70;69.50;;;;;;5251192;28;19927;-34
2022/03/06 09:08:45;;;;;;;;;;;13.80;75.40;;;;;;5250272;28;19920;-33
2022/03/06 09:11:16;;;;;;;;;;;13.90;80.00;;;;;;5253449;28;19920;-33
2022/03/06 09:13:48;;;;;;;;;;;14.00;78.20;;;;;;5268476;28;20377;-33
2022/03/06 09:16:18;;;;;;;;;;;14.10;72.10;;;;;;5271582;28;19927;-33
2022/03/06 09:18:50;;;;;;;;;;;14.20;77.20;;;;;;5271081;28;19920;-33
2022/03/06 09:21:20;;;;;;;;;;;14.20;75.20;;;;;;5271252;28;19927;-31
2022/03/06 09:23:51;;;;;;;;;;;14.30;71.80;;;;;;5271716;28;19920;-32
2022/03/06 09:26:22;;;;;;;;;;;14.30;68.30;;;;;;5267832;28;19927;-32
2022/03/06 09:28:53;;;;;;;;;;;14.30;69.70;;;;;;5262208;28;19920;-38
2022/03/06 09:31:25;;;;;;;;;;;14.20;61.10;;;;;;5271124;28;20496;-41
2022/03/06 09:33:56;;;;;;;;;;;14.20;59.90;;;;;;5261728;28;20054;-38
2022/03/06 09:36:27;;;;;;;;;;;14.10;59.70;;;;;;5253536;28;19995;-32
2022/03/06 09:38:58;;;;;;;;;;;14.10;58.70;;;;;;5260077;28;19920;-33
2022/03/06 09:41:29;;;;;;;;;;;14.00;58.10;;;;;;5260968;28;19926;-31
2022/03/06 09:44:01;;;;;;;;;;;14.00;58.00;;;;;;5264067;28;19920;-38
2022/03/06 09:46:31;;;;;;;;;;;14.00;58.50;;;;;;5260313;28;19924;-35
2022/03/06 09:49:03;;;;;;;;;;;14.00;63.40;;;;;;5265100;28;19920;-37
2022/03/06 09:51:34;;;;;;;;;;;14.00;65.10;;;;;;5254789;28;19920;-32
2022/03/06 09:54:05;;;;;;;;;;;14.10;64.70;;;;;;5255025;28;19928;-30
2022/03/06 09:56:36;;;;;;;;;;;14.10;62.10;;;;;;5249856;28;20323;-37
2022/03/06 09:59:07;;;;;;;;;;;14.10;64.20;;;;;;5249376;28;19924;-43
2022/03/06 10:01:38;;;;;;;;;;;14.10;60.00;;;;;;5249583;28;19920;-35
2022/03/06 10:04:31;;;;;;;;;;;14.10;63.20;;;;;;5250420;28;19955;-39
2022/03/06 10:07:02;;;;;;;;;;;14.10;60.60;;;;;;5250061;28;19924;-32
2022/03/06 10:09:34;;;;;;;;;;;14.20;70.20;;;;;;5248932;28;20365;-41
2022/03/06 10:12:16;;;;;;;;;;;14.30;67.70;;;;;;5250101;28;19920;-40
2022/03/06 10:14:48;;;;;;;;;;;14.20;68.70;;;;;;5250022;28;20012;-41
2022/03/06 10:17:22;;;;;;;;;;;14.10;62.60;;;;;;5250242;28;19920;-40
2022/03/06 10:19:57;;;;;;;;;;;14.00;60.80;;;;;;5249018;28;19920;-38
2022/03/06 10:22:31;;;;;;;;;;;14.00;60.40;;;;;;5250081;28;19920;-33
2022/03/06 10:25:06;;;;;;;;;;;13.90;60.90;;;;;;5248594;28;19931;-38
2022/03/06 10:27:53;;;;;;;;;;;13.90;60.60;;;;;;5249750;28;19966;-34
2022/03/06 10:30:26;;;;;;;;;;;13.90;61.80;;;;;;5248489;28;19924;-36
2022/03/06 10:32:58;;;;;;;;;;;13.80;60.50;;;;;;5249696;28;19921;-33
2022/03/06 10:35:32;;;;;;;;;;;13.80;60.80;;;;;;5249666;28;19928;-40
2022/03/06 10:38:25;;;;;;;;;;;13.80;60.10;;;;;;5265319;28;20436;-35
2022/03/06 10:41:12;;;;;;;;;;;13.80;59.70;;;;;;5206027;28;19921;-34
2022/03/06 10:43:43;;;;;;;;;;;13.70;59.70;;;;;;5206344;28;19928;-31
2022/03/06 10:46:18;;;;;;;;;;;13.70;59.40;;;;;;5205937;28;19921;-37
2022/03/06 10:48:56;;;;;;;;;;;13.70;59.40;;;;;;5205624;28;19921;-42
2022/03/06 10:51:27;;;;;;;;;;;13.60;60.50;;;;;;5189360;28;19921;-41
2022/03/06 10:53:58;;;;;;;;;;;13.60;59.10;;;;;;5206151;28;19921;-38
2022/03/06 10:56:29;;;;;;;;;;;13.70;60.90;;;;;;5205720;28;19921;-37
2022/03/06 10:59:01;;;;;;;;;;;13.60;60.30;;;;;;5205430;28;20023;-35
2022/03/06 11:01:32;;;;;;;;;;;13.60;59.50;;;;;;5205728;28;19921;-37
2022/03/06 11:04:04;;;;;;;;;;;13.60;59.30;;;;;;5189383;28;20003;-39
2022/03/06 11:06:39;;;;;;;;;;;13.50;59.40;;;;;;5205391;28;19921;-38
2022/03/06 11:09:11;;;;;;;;;;;13.50;60.00;;;;;;5205673;28;20512;-40
2022/03/06 11:11:43;;;;;;;;;;;13.50;60.10;;;;;;5205783;28;19925;-39
2022/03/06 11:14:14;;;;;;;;;;;13.50;60.60;;;;;;5205428;28;19921;-39
2022/03/06 11:16:45;;;;;;;;;;;13.50;59.80;;;;;;5206310;28;19928;-37
2022/03/06 11:19:16;;;;;;;;;;;13.50;59.80;;;;;;5264593;28;20331;-38
2022/03/06 11:21:47;;;;;;;;;;;13.40;59.90;;;;;;5248764;28;19924;-32
2022/03/06 11:24:19;;;;;;;;;;;13.50;66.00;;;;;;5248464;28;19920;-36
2022/03/06 11:27:09;;;;;;;;;;;13.50;60.50;;;;;;5247599;28;19920;-38
2022/03/06 11:30:00;;;;;;;;;;;13.50;60.50;;;;;;5269914;28;19920;-36
2022/03/06 11:32:35;;;;;;;;;;;13.40;59.50;;;;;;5266799;28;20035;-35
2022/03/06 11:41:10;;;;;;;;;;;13.40;60.10;;;;;;5343055;27;20089;-36
2022/03/06 11:43:44;;;;;;;;;;;13.40;58.90;;;;;;5338156;27;19923;-31
2022/03/06 11:46:21;;;;;;;;;;;13.40;59.50;;;;;;5340148;27;19930;-34
2022/03/06 11:48:55;;;;;;;;;;;13.40;59.80;;;;;;5338985;27;19924;-29
2022/03/06 11:51:27;;;;;;;;;;;13.50;59.00;;;;;;5340463;27;20316;-31
2022/03/06 11:54:02;;;;;;;;;;;13.50;58.20;;;;;;5341334;27;19948;-32
2022/03/06 11:56:40;;;;;;;;;;;13.40;57.90;;;;;;5341445;27;19923;-34
2022/03/06 11:59:24;;;;;;;;;;;13.50;58.40;;;;;;5341264;27;19945;-31
2022/03/06 12:01:59;;;;;;;;;;;13.50;58.20;;;;;;5303786;27;19935;-30
2022/03/06 12:04:31;;;;;;;;;;;13.40;58.50;;;;;;5315946;27;19967;-32
2022/03/06 12:07:03;;;;;;;;;;;13.40;58.10;;;;;;5298946;27;19939;-31
2022/03/06 12:09:39;;;;;;;;;;;13.40;58.20;;;;;;5306391;28;20370;-32
2022/03/06 12:12:11;;;;;;;;;;;13.40;59.10;;;;;;5289575;28;19927;-32
2022/03/06 12:14:51;;;;;;;;;;;13.40;59.10;;;;;;5289521;28;19923;-32
2022/03/06 12:17:31;;;;;;;;;;;13.40;58.70;;;;;;5314407;27;19935;-33
2022/03/06 12:20:08;;;;;;;;;;;13.30;58.80;;;;;;5314027;27;20345;-32
2022/03/06 12:22:46;;;;;;;;;;;13.30;59.20;;;;;;5312454;27;19934;-33
2022/03/06 12:25:18;;;;;;;;;;;13.30;59.10;;;;;;5324283;27;20383;-32
2022/03/06 12:28:01;;;;;;;;;;;13.30;59.50;;;;;;5304274;27;19969;-32
2022/03/06 12:30:34;;;;;;;;;;;13.30;59.40;;;;;;5251176;27;19923;-32
2022/03/06 12:33:24;;;;;;;;;;;13.30;59.50;;;;;;5293901;27;20324;-37
2022/03/06 12:36:08;;;;;;;;;;;13.30;59.70;;;;;;5303426;27;19955;-43
2022/03/06 12:38:39;;;;;;;;;;;13.30;59.70;;;;;;5302240;27;19924;-35
2022/03/06 12:41:10;;;;;;;;;;;13.30;59.70;;;;;;5309848;27;20289;-36
2022/03/06 12:43:46;;;;;;;;;;;13.30;59.70;;;;;;5302391;27;19955;-39
2022/03/06 12:46:17;;;;;;;;;;;13.30;60.00;;;;;;5288450;27;19927;-38
2022/03/06 12:48:48;;;;;;;;;;;13.30;59.90;;;;;;5287816;28;19938;-33
2022/03/06 12:51:26;;;;;;;;;;;13.30;59.30;;;;;;5286583;28;19969;-41
2022/03/06 12:53:57;;;;;;;;;;;12.10;60.10;;;;;;5284324;28;19960;-32
2022/03/06 12:56:29;;;;;;;;;;;11.10;62.20;;;;;;5274513;27;20437;-30
2022/03/06 12:59:04;;;;;;;;;;;10.60;64.70;;;;;;5291204;27;19953;-33
2022/03/06 13:01:36;;;;;;;;;;;10.30;63.30;;;;;;5288722;27;20338;-31
2022/03/06 13:04:07;;;;;;;;;;;10.10;63.80;;;;;;5271403;28;20453;-34
2022/03/06 13:06:38;;;;;;;;;;;9.90;63.90;;;;;;5289440;28;19924;-31
2022/03/06 13:09:20;;;;;;;;;;;9.80;66.10;;;;;;5289436;28;19931;-33
2022/03/06 13:11:51;;;;;;;;;;;9.70;64.80;;;;;;5291995;27;19923;-32
2022/03/06 13:14:31;;;;;;;;;;;9.70;66.00;;;;;;5293513;27;19924;-31
2022/03/06 13:17:09;;;;;;;;;;;9.70;66.30;;;;;;5293636;28;19924;-33
2022/03/06 13:19:47;;;;;;;35.43;19.33;;;10.20;65.50;;;;;;5293022;28;19935;-34
2022/03/06 13:22:19;;;;;;;65.33;34.13;;;10.60;65.20;;;;;;5293040;28;20067;-33
2022/03/06 13:24:52;;;;;;;29.03;17.43;;;11.00;65.20;;;;;;5291546;28;20058;-33
2022/03/06 13:27:32;;;;;;;24.98;15.02;;;11.20;64.50;;;;;;5292940;28;20457;-32
2022/03/06 13:30:31;;;;;;;24.93;15.07;;;11.50;63.50;;;;;;5291442;28;20068;-32
2022/03/06 13:33:03;;;;;;;14.90;11.60;;;11.70;63.10;;;;;;5292512;28;20046;-32
2022/03/06 13:35:39;;;;;;;18.47;13.60;;;11.80;62.60;;;;;;5292027;27;20052;-32
2022/03/06 13:38:11;;;;;;;22.90;15.00;;;12.00;62.20;;;;;;5291646;28;20039;-34
2022/03/06 13:40:44;;;;;;;24.43;14.50;;;12.10;62.20;;;;;;5291138;28;20051;-32
2022/03/06 13:43:16;;;;;;;24.75;13.55;;;12.20;62.10;;;;;;5292043;28;20369;-36
2022/03/06 13:45:54;;;;;;;30.93;17.00;;;12.20;62.50;;;;;;5290255;28;20044;-31
2022/03/06 13:48:28;;;;;;;24.43;13.73;;;12.30;62.20;;;;;;5292003;28;20051;-42
2022/03/06 13:50:59;;;;;;;13.77;9.37;;;12.40;62.30;;;;;;5291338;27;20047;-34
2022/03/06 13:53:30;;;;;;;11.97;8.40;;;12.50;62.50;;;;;;5291725;28;20511;-34
2022/03/06 13:56:02;;;;;;;11.00;8.00;;;12.60;62.20;;;;;;5290639;28;20111;-33
2022/03/06 13:58:38;;;;;;;29.83;20.48;;;12.70;61.60;;;;;;5290199;28;20050;-34
2022/03/06 14:01:13;;;;;;;28.07;20.47;;;12.80;61.90;;;;;;5291871;28;20119;-39
2022/03/06 14:03:46;;;;;;;27.20;15.93;;;12.90;62.50;;;;;;5291738;27;20059;-33
2022/03/06 14:06:17;;;;;;;37.17;22.88;;;13.00;62.50;;;;;;5291987;28;20488;-31
2022/03/06 14:08:49;;;;;;;29.93;20.97;;;13.10;62.90;;;;;;5290821;27;20040;-31
2022/03/06 14:11:26;;;;;;;36.70;32.50;;;13.10;63.10;;;;;;5284066;28;20036;-39
2022/03/06 14:13:59;;;;;;;21.63;17.33;;;13.20;63.20;;;;;;5273460;28;20040;-41
2022/03/06 14:16:34;;;;;;;21.38;17.83;;;13.30;63.30;;;;;;5274639;28;20052;-31
2022/03/06 14:19:07;;;;;;;20.73;16.07;;;13.30;63.50;;;;;;5268617;28;20117;-31
2022/03/06 14:21:41;;;;;;;22.50;16.13;;;13.30;63.40;;;;;;5252178;28;20067;-32
2022/03/06 14:24:13;;;;;;;15.57;12.57;;;13.30;63.30;;;;;;5254779;28;20044;-39
2022/03/06 14:26:52;;;;;;;14.80;11.17;;;13.30;63.40;;;;;;5293445;27;20042;-34
2022/03/06 14:29:29;;;;;;;16.50;11.40;;;13.30;63.70;;;;;;5294199;27;20047;-36
2022/03/06 14:32:00;;;;;;;23.70;16.30;;;13.40;63.40;;;;;;5298711;27;20043;-34
2022/03/06 14:34:33;;;;;;;108.33;70.83;;;13.40;63.20;;;;;;5295531;27;20047;-32
2022/03/06 14:37:05;;;;;;;103.03;60.58;;;13.40;63.10;;;;;;5286233;28;20040;-36
2022/03/06 14:39:40;;;;;;;;;;;13.40;63.20;;;;;;5269231;28;20055;-35
2022/03/06 14:42:13;;;;;;;70.40;41.88;;;13.40;63.20;;;;;;5290215;27;19919;-33